sensor_id;sensor_type;location;lat;lon;timestamp;pressure;altitude;pressure_sealevel;temperature;humidity
59789;BME280;47353;51.614;5.530;2022-08-05T09:46:37;101695.31;;;27.22;46.24
59789;BME280;47353;51.614;5.530;2022-08-05T09:49:02;101688.44;;;28.91;42.98
59789;BME280;47353;51.614;5.530;2022-08-05T09:51:36;101695.50;;;31.08;37.63
59789;BME280;47353;51.614;5.530;2022-08-05T09:54:04;101687.03;;;32.72;35.45
59789;BME280;47353;51.614;5.530;2022-08-05T09:56:34;101695.56;;;34.09;32.92
59789;BME280;47353;51.614;5.530;2022-08-05T09:59:07;101697.69;;;34.77;31.65
59789;BME280;47353;51.614;5.530;2022-08-05T10:01:35;101695.47;;;35.02;29.73
59789;BME280;47353;51.614;5.530;2022-08-05T10:04:04;101692.31;;;35.34;30.69
59789;BME280;47353;51.614;5.530;2022-08-05T10:06:30;101699.72;;;33.98;30.93
59789;BME280;47353;51.614;5.530;2022-08-05T10:09:13;101700.16;;;32.80;35.17
59789;BME280;47353;51.614;5.530;2022-08-05T10:11:40;101702.44;;;31.07;34.34
59789;BME280;47353;51.614;5.530;2022-08-05T10:14:22;101708.50;;;29.99;36.76
59789;BME280;47353;51.614;5.530;2022-08-05T10:16:49;101708.75;;;28.89;35.80
59789;BME280;47353;51.614;5.530;2022-08-05T10:19:14;101702.22;;;28.66;36.38
59789;BME280;47353;51.614;5.530;2022-08-05T10:21:40;101706.25;;;29.07;36.41
59789;BME280;47353;51.614;5.530;2022-08-05T10:24:09;101701.44;;;29.89;34.67
59789;BME280;47353;51.614;5.530;2022-08-05T10:26:40;101707.47;;;31.71;31.03
59789;BME280;47353;51.614;5.530;2022-08-05T10:29:07;101711.13;;;31.21;30.68
59789;BME280;47353;51.614;5.530;2022-08-05T10:31:33;101713.63;;;30.45;31.83
59789;BME280;47353;51.614;5.530;2022-08-05T10:33:59;101709.53;;;29.84;33.18
59789;BME280;47353;51.614;5.530;2022-08-05T10:36:24;101725.28;;;29.48;32.60
59789;BME280;47353;51.614;5.530;2022-08-05T10:38:50;101720.03;;;29.27;33.04
59789;BME280;47353;51.614;5.530;2022-08-05T10:41:27;101725.63;;;29.20;34.06
59789;BME280;47353;51.614;5.530;2022-08-05T10:44:05;101729.06;;;29.07;34.54
59789;BME280;47353;51.614;5.530;2022-08-05T10:46:49;101733.19;;;28.90;34.75
59789;BME280;47353;51.614;5.530;2022-08-05T10:49:14;101729.69;;;29.68;34.76
59789;BME280;47353;51.614;5.530;2022-08-05T10:51:49;101732.47;;;29.91;32.01
59789;BME280;47353;51.614;5.530;2022-08-05T10:54:16;101738.63;;;29.93;31.46
59789;BME280;47353;51.614;5.530;2022-08-05T10:56:48;101733.41;;;30.98;30.67
59789;BME280;47353;51.614;5.530;2022-08-05T10:59:18;101733.13;;;32.21;28.35
59789;BME280;47353;51.614;5.530;2022-08-05T11:01:44;101749.66;;;32.60;26.54
59789;BME280;47353;51.614;5.530;2022-08-05T11:04:20;101749.41;;;32.07;29.04
59789;BME280;47353;51.614;5.530;2022-08-05T11:07:06;101747.03;;;32.19;28.83
59789;BME280;47353;51.614;5.530;2022-08-05T11:17:39;101758.19;;;32.42;26.27
59789;BME280;47353;51.614;5.530;2022-08-05T11:20:06;101759.22;;;32.95;26.03
59789;BME280;47353;51.614;5.530;2022-08-05T11:25:49;101758.84;;;33.14;27.96
59789;BME280;47353;51.614;5.530;2022-08-05T11:33:36;101763.31;;;33.85;24.21
59789;BME280;47353;51.614;5.530;2022-08-05T11:36:08;101769.41;;;34.23;22.94
59789;BME280;47353;51.614;5.530;2022-08-05T11:41:20;101774.25;;;37.84;21.49
59789;BME280;47353;51.614;5.530;2022-08-05T11:44:05;101779.47;;;39.10;19.19
59789;BME280;47353;51.614;5.530;2022-08-05T11:46:34;101777.63;;;40.29;16.79
59789;BME280;47353;51.614;5.530;2022-08-05T11:49:02;101770.22;;;40.94;15.92
59789;BME280;47353;51.614;5.530;2022-08-05T11:51:31;101780.09;;;40.43;17.20
59789;BME280;47353;51.614;5.530;2022-08-05T11:53:57;101779.53;;;38.32;18.07
59789;BME280;47353;51.614;5.530;2022-08-05T11:56:23;101790.78;;;36.47;20.19
59789;BME280;47353;51.614;5.530;2022-08-05T11:58:49;101776.97;;;34.82;22.20
59789;BME280;47353;51.614;5.530;2022-08-05T12:01:19;101785.06;;;34.15;22.12
59789;BME280;47353;51.614;5.530;2022-08-05T12:06:18;101793.69;;;33.30;24.33
59789;BME280;47353;51.614;5.530;2022-08-05T12:08:48;101808.38;;;32.90;24.83
59789;BME280;47353;51.614;5.530;2022-08-05T12:11:20;101816.69;;;33.41;24.69
59789;BME280;47353;51.614;5.530;2022-08-05T12:13:56;101813.28;;;34.51;24.19
59789;BME280;47353;51.614;5.530;2022-08-05T12:16:22;101820.31;;;34.40;23.10
59789;BME280;47353;51.614;5.530;2022-08-05T12:18:49;101820.81;;;33.82;24.14
59789;BME280;47353;51.614;5.530;2022-08-05T12:21:18;101828.94;;;33.27;24.55
59789;BME280;47353;51.614;5.530;2022-08-05T12:23:57;101820.59;;;32.77;25.51
59789;BME280;47353;51.614;5.530;2022-08-05T12:26:22;101831.25;;;32.04;26.80
59789;BME280;47353;51.614;5.530;2022-08-05T12:28:48;101834.59;;;32.13;26.64
59789;BME280;47353;51.614;5.530;2022-08-05T12:31:13;101842.19;;;32.46;26.23
59789;BME280;47353;51.614;5.530;2022-08-05T12:33:41;101849.97;;;31.88;25.57
59789;BME280;47353;51.614;5.530;2022-08-05T12:36:07;101838.69;;;31.65;25.80
59789;BME280;47353;51.614;5.530;2022-08-05T12:38:33;101842.22;;;32.57;25.48
59789;BME280;47353;51.614;5.530;2022-08-05T12:40:59;101846.56;;;34.59;23.86
59789;BME280;47353;51.614;5.530;2022-08-05T12:43:24;101855.31;;;35.76;21.75
59789;BME280;47353;51.614;5.530;2022-08-05T12:45:51;101854.19;;;37.45;19.74
59789;BME280;47353;51.614;5.530;2022-08-05T12:48:17;101859.00;;;38.47;18.06
59789;BME280;47353;51.614;5.530;2022-08-05T12:50:43;101873.47;;;36.95;18.18
59789;BME280;47353;51.614;5.530;2022-08-05T12:53:14;101870.91;;;35.85;19.99
59789;BME280;47353;51.614;5.530;2022-08-05T12:55:40;101870.63;;;36.17;19.46
59789;BME280;47353;51.614;5.530;2022-08-05T12:58:06;101869.22;;;35.29;18.12
59789;BME280;47353;51.614;5.530;2022-08-05T13:00:32;101878.44;;;35.03;18.86
59789;BME280;47353;51.614;5.530;2022-08-05T13:03:06;101884.06;;;35.24;19.91
59789;BME280;47353;51.614;5.530;2022-08-05T13:05:33;101883.34;;;35.03;20.22
59789;BME280;47353;51.614;5.530;2022-08-05T13:08:03;101883.16;;;34.34;20.83
59789;BME280;47353;51.614;5.530;2022-08-05T13:10:30;101888.47;;;33.44;22.27
59789;BME280;47353;51.614;5.530;2022-08-05T13:12:57;101896.28;;;33.82;22.24
59789;BME280;47353;51.614;5.530;2022-08-05T13:15:30;101890.16;;;33.98;22.08
59789;BME280;47353;51.614;5.530;2022-08-05T13:17:56;101877.41;;;33.57;21.90
59789;BME280;47353;51.614;5.530;2022-08-05T13:20:21;101894.94;;;33.24;21.58
59789;BME280;47353;51.614;5.530;2022-08-05T13:22:49;101885.75;;;32.80;20.80
59789;BME280;47353;51.614;5.530;2022-08-05T13:25:16;101892.50;;;32.37;22.07
59789;BME280;47353;51.614;5.530;2022-08-05T13:27:53;101888.28;;;32.27;23.26
59789;BME280;47353;51.614;5.530;2022-08-05T13:30:20;101890.16;;;32.02;21.45
59789;BME280;47353;51.614;5.530;2022-08-05T13:32:47;101888.59;;;32.11;22.84
59789;BME280;47353;51.614;5.530;2022-08-05T13:35:16;101882.56;;;32.95;22.12
59789;BME280;47353;51.614;5.530;2022-08-05T13:37:42;101895.50;;;33.78;21.13
59789;BME280;47353;51.614;5.530;2022-08-05T13:40:09;101893.16;;;35.19;18.79
59789;BME280;47353;51.614;5.530;2022-08-05T13:42:35;101894.47;;;36.21;18.31
59789;BME280;47353;51.614;5.530;2022-08-05T13:45:00;101896.31;;;37.95;16.47
59789;BME280;47353;51.614;5.530;2022-08-05T13:47:26;101910.38;;;39.05;16.24
59789;BME280;47353;51.614;5.530;2022-08-05T13:49:52;101901.84;;;39.86;15.74
59789;BME280;47353;51.614;5.530;2022-08-05T13:52:22;101910.56;;;40.18;14.40
59789;BME280;47353;51.614;5.530;2022-08-05T13:54:49;101908.94;;;40.01;15.10
59789;BME280;47353;51.614;5.530;2022-08-05T13:57:15;101913.81;;;40.64;14.84
59789;BME280;47353;51.614;5.530;2022-08-05T13:59:41;101906.78;;;41.60;13.95
59789;BME280;47353;51.614;5.530;2022-08-05T14:02:09;101916.09;;;41.68;13.72
59789;BME280;47353;51.614;5.530;2022-08-05T14:04:37;101919.19;;;41.10;15.03
59789;BME280;47353;51.614;5.530;2022-08-05T14:07:26;101916.53;;;41.28;13.94
59789;BME280;47353;51.614;5.530;2022-08-05T14:09:52;101924.44;;;41.41;13.73
59789;BME280;47353;51.614;5.530;2022-08-05T14:12:17;101918.50;;;40.46;14.96
59789;BME280;47353;51.614;5.530;2022-08-05T14:14:43;101921.78;;;41.05;14.65
59789;BME280;47353;51.614;5.530;2022-08-05T14:17:08;101916.22;;;41.77;14.83
59789;BME280;47353;51.614;5.530;2022-08-05T14:19:34;101924.25;;;42.57;14.36
59789;BME280;47353;51.614;5.530;2022-08-05T14:21:59;101929.13;;;41.63;14.31
59789;BME280;47353;51.614;5.530;2022-08-05T14:24:25;101922.16;;;40.78;14.77
59789;BME280;47353;51.614;5.530;2022-08-05T14:26:50;101950.16;;;39.01;14.78
59789;BME280;47353;51.614;5.530;2022-08-05T14:29:15;101943.31;;;39.66;14.93
59789;BME280;47353;51.614;5.530;2022-08-05T14:31:41;101935.75;;;39.17;15.11
59789;BME280;47353;51.614;5.530;2022-08-05T14:34:06;101940.94;;;40.13;14.88
59789;BME280;47353;51.614;5.530;2022-08-05T14:36:32;101937.13;;;40.77;14.13
59789;BME280;47353;51.614;5.530;2022-08-05T14:38:57;101941.56;;;41.51;13.92
59789;BME280;47353;51.614;5.530;2022-08-05T14:41:22;101944.78;;;40.71;14.31
59789;BME280;47353;51.614;5.530;2022-08-05T14:43:48;101941.88;;;40.71;14.02
59789;BME280;47353;51.614;5.530;2022-08-05T14:46:15;101941.78;;;39.07;15.41
59789;BME280;47353;51.614;5.530;2022-08-05T14:48:40;101946.44;;;39.01;16.86
59789;BME280;47353;51.614;5.530;2022-08-05T14:51:06;101942.91;;;37.74;16.97
59789;BME280;47353;51.614;5.530;2022-08-05T14:53:31;101944.31;;;36.21;18.77
59789;BME280;47353;51.614;5.530;2022-08-05T14:55:56;101942.31;;;34.25;21.01
59789;BME280;47353;51.614;5.530;2022-08-05T14:58:22;101944.69;;;32.70;23.11
59789;BME280;47353;51.614;5.530;2022-08-05T15:00:47;101945.47;;;31.66;24.18
59789;BME280;47353;51.614;5.530;2022-08-05T15:03:13;101948.28;;;33.32;22.82
59789;BME280;47353;51.614;5.530;2022-08-05T15:05:38;101952.06;;;34.97;20.77
59789;BME280;47353;51.614;5.530;2022-08-05T15:08:03;101943.84;;;35.75;19.94
59789;BME280;47353;51.614;5.530;2022-08-05T15:10:29;101951.69;;;35.71;19.83
59789;BME280;47353;51.614;5.530;2022-08-05T15:12:54;101950.25;;;36.00;19.95
59789;BME280;47353;51.614;5.530;2022-08-05T15:15:20;101952.94;;;34.73;20.58
59789;BME280;47353;51.614;5.530;2022-08-05T15:17:45;101958.41;;;32.94;22.53
59789;BME280;47353;51.614;5.530;2022-08-05T15:20:11;101953.63;;;32.04;23.11
59789;BME280;47353;51.614;5.530;2022-08-05T15:22:36;101957.34;;;31.68;24.04
59789;BME280;47353;51.614;5.530;2022-08-05T15:25:03;101953.47;;;31.20;24.37
59789;BME280;47353;51.614;5.530;2022-08-05T15:27:28;101952.41;;;32.56;23.50
59789;BME280;47353;51.614;5.530;2022-08-05T15:29:54;101955.19;;;33.13;22.94
59789;BME280;47353;51.614;5.530;2022-08-05T15:32:19;101952.16;;;34.48;21.45
59789;BME280;47353;51.614;5.530;2022-08-05T15:34:44;101955.47;;;34.47;20.34
59789;BME280;47353;51.614;5.530;2022-08-05T15:37:10;101957.50;;;34.36;20.21
59789;BME280;47353;51.614;5.530;2022-08-05T15:39:35;101957.81;;;34.97;20.05
59789;BME280;47353;51.614;5.530;2022-08-05T15:42:00;101953.72;;;35.74;19.15
59789;BME280;47353;51.614;5.530;2022-08-05T15:44:26;101955.84;;;36.21;18.10
59789;BME280;47353;51.614;5.530;2022-08-05T15:46:52;101953.78;;;36.22;19.12
59789;BME280;47353;51.614;5.530;2022-08-05T15:49:17;101964.16;;;36.97;18.79
59789;BME280;47353;51.614;5.530;2022-08-05T15:51:43;101961.66;;;36.99;18.51
59789;BME280;47353;51.614;5.530;2022-08-05T15:54:08;101961.06;;;37.15;18.46
59789;BME280;47353;51.614;5.530;2022-08-05T15:56:33;101967.22;;;37.17;18.52
59789;BME280;47353;51.614;5.530;2022-08-05T15:58:59;101958.50;;;36.87;18.05
59789;BME280;47353;51.614;5.530;2022-08-05T16:01:24;101964.41;;;36.72;18.75
59789;BME280;47353;51.614;5.530;2022-08-05T16:03:49;101955.50;;;36.12;18.95
59789;BME280;47353;51.614;5.530;2022-08-05T16:06:15;101971.94;;;35.54;19.68
59789;BME280;47353;51.614;5.530;2022-08-05T16:08:40;101980.78;;;35.15;20.17
59789;BME280;47353;51.614;5.530;2022-08-05T16:11:07;101984.94;;;33.77;21.40
59789;BME280;47353;51.614;5.530;2022-08-05T16:13:34;101981.34;;;32.94;21.36
59789;BME280;47353;51.614;5.530;2022-08-05T16:15:59;101989.06;;;32.33;22.90
59789;BME280;47353;51.614;5.530;2022-08-05T16:18:25;101989.38;;;31.14;24.52
59789;BME280;47353;51.614;5.530;2022-08-05T16:20:50;101981.50;;;31.04;24.81
59789;BME280;47353;51.614;5.530;2022-08-05T16:23:15;101994.97;;;31.66;24.60
59789;BME280;47353;51.614;5.530;2022-08-05T16:25:41;101992.56;;;32.12;24.22
59789;BME280;47353;51.614;5.530;2022-08-05T16:28:06;101996.50;;;31.93;24.45
59789;BME280;47353;51.614;5.530;2022-08-05T16:30:32;102000.91;;;31.51;25.00
59789;BME280;47353;51.614;5.530;2022-08-05T16:32:59;101999.94;;;30.81;25.76
59789;BME280;47353;51.614;5.530;2022-08-05T16:35:25;102008.72;;;30.68;26.61
59789;BME280;47353;51.614;5.530;2022-08-05T16:37:51;102014.53;;;30.23;27.35
59789;BME280;47353;51.614;5.530;2022-08-05T16:40:16;102021.25;;;29.51;27.56
59789;BME280;47353;51.614;5.530;2022-08-05T16:42:41;102013.47;;;28.44;29.48
59789;BME280;47353;51.614;5.530;2022-08-05T16:45:07;102023.75;;;27.43;30.38
59789;BME280;47353;51.614;5.530;2022-08-05T16:47:33;102034.06;;;26.96;31.77
59789;BME280;47353;51.614;5.530;2022-08-05T16:49:58;102037.03;;;26.52;32.44
59789;BME280;47353;51.614;5.530;2022-08-05T16:52:23;102030.53;;;26.15;32.92
59789;BME280;47353;51.614;5.530;2022-08-05T16:54:49;102039.78;;;25.79;33.57
59789;BME280;47353;51.614;5.530;2022-08-05T16:57:14;102037.16;;;25.21;34.68
59789;BME280;47353;51.614;5.530;2022-08-05T16:59:40;102033.91;;;24.90;34.78
59789;BME280;47353;51.614;5.530;2022-08-05T17:02:05;102037.13;;;24.80;35.21
59789;BME280;47353;51.614;5.530;2022-08-05T17:04:31;102035.84;;;24.78;35.98
59789;BME280;47353;51.614;5.530;2022-08-05T17:06:57;102045.91;;;24.67;35.91
59789;BME280;47353;51.614;5.530;2022-08-05T17:09:27;102041.91;;;24.59;35.71
59789;BME280;47353;51.614;5.530;2022-08-05T17:11:52;102048.41;;;24.59;36.25
59789;BME280;47353;51.614;5.530;2022-08-05T17:14:17;102046.81;;;24.50;36.34
59789;BME280;47353;51.614;5.530;2022-08-05T17:16:43;102052.63;;;24.24;36.38
59789;BME280;47353;51.614;5.530;2022-08-05T17:19:08;102052.22;;;23.80;37.13
59789;BME280;47353;51.614;5.530;2022-08-05T17:21:34;102062.94;;;23.49;37.48
59789;BME280;47353;51.614;5.530;2022-08-05T17:23:59;102063.94;;;23.44;38.07
59789;BME280;47353;51.614;5.530;2022-08-05T17:26:24;102064.94;;;23.31;38.64
59789;BME280;47353;51.614;5.530;2022-08-05T17:28:50;102073.38;;;23.23;38.73
59789;BME280;47353;51.614;5.530;2022-08-05T17:31:15;102079.84;;;23.15;38.62
59789;BME280;47353;51.614;5.530;2022-08-05T17:33:41;102080.84;;;22.93;38.93
59789;BME280;47353;51.614;5.530;2022-08-05T17:36:06;102078.47;;;22.78;38.81
59789;BME280;47353;51.614;5.530;2022-08-05T17:38:31;102084.28;;;22.81;38.92
59789;BME280;47353;51.614;5.530;2022-08-05T17:40:57;102097.88;;;22.71;38.83
59789;BME280;47353;51.614;5.530;2022-08-05T17:43:22;102093.88;;;22.63;38.90
59789;BME280;47353;51.614;5.530;2022-08-05T17:45:47;102093.22;;;22.75;38.75
59789;BME280;47353;51.614;5.530;2022-08-05T17:48:13;102097.19;;;22.57;38.82
59789;BME280;47353;51.614;5.530;2022-08-05T17:50:38;102106.81;;;22.56;39.31
59789;BME280;47353;51.614;5.530;2022-08-05T17:53:04;102101.84;;;22.31;39.31
59789;BME280;47353;51.614;5.530;2022-08-05T17:55:31;102113.00;;;22.36;39.10
59789;BME280;47353;51.614;5.530;2022-08-05T17:57:56;102111.63;;;22.25;39.45
59789;BME280;47353;51.614;5.530;2022-08-05T18:00:24;102115.75;;;22.19;39.67
59789;BME280;47353;51.614;5.530;2022-08-05T18:02:50;102117.50;;;22.06;39.69
59789;BME280;47353;51.614;5.530;2022-08-05T18:05:15;102122.03;;;21.85;40.57
59789;BME280;47353;51.614;5.530;2022-08-05T18:07:41;102132.66;;;21.88;40.50
59789;BME280;47353;51.614;5.530;2022-08-05T18:10:07;102120.66;;;21.61;40.07
59789;BME280;47353;51.614;5.530;2022-08-05T18:12:32;102144.66;;;21.58;40.85
59789;BME280;47353;51.614;5.530;2022-08-05T18:14:58;102138.69;;;21.60;41.06
59789;BME280;47353;51.614;5.530;2022-08-05T18:17:23;102145.59;;;21.54;41.03
59789;BME280;47353;51.614;5.530;2022-08-05T18:19:48;102141.38;;;21.42;40.47
59789;BME280;47353;51.614;5.530;2022-08-05T18:22:14;102154.78;;;21.23;40.48
59789;BME280;47353;51.614;5.530;2022-08-05T18:24:39;102153.84;;;21.14;40.04
59789;BME280;47353;51.614;5.530;2022-08-05T18:27:05;102160.22;;;20.93;40.82
59789;BME280;47353;51.614;5.530;2022-08-05T18:29:30;102162.66;;;20.72;41.67
59789;BME280;47353;51.614;5.530;2022-08-05T18:31:55;102159.84;;;20.72;40.92
59789;BME280;47353;51.614;5.530;2022-08-05T18:34:21;102169.22;;;20.54;41.50
59789;BME280;47353;51.614;5.530;2022-08-05T18:36:46;102169.00;;;20.37;40.98
59789;BME280;47353;51.614;5.530;2022-08-05T18:39:12;102175.31;;;20.29;41.33
59789;BME280;47353;51.614;5.530;2022-08-05T18:41:37;102175.34;;;20.11;42.13
59789;BME280;47353;51.614;5.530;2022-08-05T18:44:02;102177.09;;;20.07;41.58
59789;BME280;47353;51.614;5.530;2022-08-05T18:46:28;102187.59;;;20.01;41.83
59789;BME280;47353;51.614;5.530;2022-08-05T18:48:53;102191.19;;;19.88;42.51
59789;BME280;47353;51.614;5.530;2022-08-05T18:51:20;102187.94;;;19.81;42.85
59789;BME280;47353;51.614;5.530;2022-08-05T18:54:04;102179.28;;;19.77;42.86
59789;BME280;47353;51.614;5.530;2022-08-05T18:56:29;102172.47;;;19.65;43.27
59789;BME280;47353;51.614;5.530;2022-08-05T18:58:55;102186.22;;;19.48;43.93
59789;BME280;47353;51.614;5.530;2022-08-05T19:01:20;102185.72;;;19.46;44.14
59789;BME280;47353;51.614;5.530;2022-08-05T19:03:46;102196.03;;;19.32;45.08
59789;BME280;47353;51.614;5.530;2022-08-05T19:06:11;102185.78;;;19.17;45.89
59789;BME280;47353;51.614;5.530;2022-08-05T19:08:37;102194.31;;;19.12;45.98
59789;BME280;47353;51.614;5.530;2022-08-05T19:11:02;102203.00;;;18.92;46.70
59789;BME280;47353;51.614;5.530;2022-08-05T19:13:28;102219.03;;;18.87;46.82
59789;BME280;47353;51.614;5.530;2022-08-05T19:15:53;102222.50;;;18.79;46.98
59789;BME280;47353;51.614;5.530;2022-08-05T19:18:18;102219.81;;;18.69;46.92
59789;BME280;47353;51.614;5.530;2022-08-05T19:20:45;102227.00;;;18.51;47.80
59789;BME280;47353;51.614;5.530;2022-08-05T19:23:11;102218.72;;;18.41;47.90
59789;BME280;47353;51.614;5.530;2022-08-05T19:25:36;102232.28;;;18.29;47.77
59789;BME280;47353;51.614;5.530;2022-08-05T19:28:02;102232.91;;;18.21;47.97
59789;BME280;47353;51.614;5.530;2022-08-05T19:30:27;102232.38;;;18.14;48.30
59789;BME280;47353;51.614;5.530;2022-08-05T19:32:53;102240.28;;;18.12;48.48
59789;BME280;47353;51.614;5.530;2022-08-05T19:35:18;102239.75;;;18.05;48.93
59789;BME280;47353;51.614;5.530;2022-08-05T19:37:43;102243.41;;;18.05;48.75
59789;BME280;47353;51.614;5.530;2022-08-05T19:40:09;102239.03;;;17.89;49.83
59789;BME280;47353;51.614;5.530;2022-08-05T19:42:35;102250.81;;;17.91;49.39
59789;BME280;47353;51.614;5.530;2022-08-05T19:45:00;102249.75;;;17.82;49.00
59789;BME280;47353;51.614;5.530;2022-08-05T19:47:26;102249.00;;;17.72;49.84
59789;BME280;47353;51.614;5.530;2022-08-05T19:49:51;102256.69;;;17.51;50.40
59789;BME280;47353;51.614;5.530;2022-08-05T19:52:16;102261.13;;;17.52;50.06
59789;BME280;47353;51.614;5.530;2022-08-05T19:54:42;102263.44;;;17.45;50.46
59789;BME280;47353;51.614;5.530;2022-08-05T19:57:08;102260.06;;;17.38;51.58
59789;BME280;47353;51.614;5.530;2022-08-05T19:59:34;102261.78;;;17.34;51.11
59789;BME280;47353;51.614;5.530;2022-08-05T20:01:59;102268.78;;;17.32;51.00
59789;BME280;47353;51.614;5.530;2022-08-05T20:04:28;102269.69;;;17.22;51.31
59789;BME280;47353;51.614;5.530;2022-08-05T20:06:53;102269.69;;;17.12;51.58
59789;BME280;47353;51.614;5.530;2022-08-05T20:09:19;102260.72;;;17.15;51.52
59789;BME280;47353;51.614;5.530;2022-08-05T20:11:44;102271.97;;;17.10;51.86
59789;BME280;47353;51.614;5.530;2022-08-05T20:14:10;102281.75;;;17.13;52.18
59789;BME280;47353;51.614;5.530;2022-08-05T20:16:35;102284.31;;;16.99;52.04
59789;BME280;47353;51.614;5.530;2022-08-05T20:19:00;102294.09;;;16.97;52.29
59789;BME280;47353;51.614;5.530;2022-08-05T20:21:26;102287.13;;;16.89;52.01
59789;BME280;47353;51.614;5.530;2022-08-05T20:23:52;102295.53;;;16.84;52.49
59789;BME280;47353;51.614;5.530;2022-08-05T20:26:20;102300.88;;;16.76;53.45
59789;BME280;47353;51.614;5.530;2022-08-05T20:28:50;102304.22;;;16.78;52.93
59789;BME280;47353;51.614;5.530;2022-08-05T20:31:17;102305.09;;;16.73;53.61
59789;BME280;47353;51.614;5.530;2022-08-05T20:33:43;102313.47;;;16.58;53.54
59789;BME280;47353;51.614;5.530;2022-08-05T20:36:09;102309.81;;;16.62;53.87
59789;BME280;47353;51.614;5.530;2022-08-05T20:38:34;102317.69;;;16.60;53.71
59789;BME280;47353;51.614;5.530;2022-08-05T20:40:59;102309.56;;;16.49;54.17
59789;BME280;47353;51.614;5.530;2022-08-05T20:43:25;102313.50;;;16.48;54.57
59789;BME280;47353;51.614;5.530;2022-08-05T20:45:50;102324.91;;;16.41;54.58
59789;BME280;47353;51.614;5.530;2022-08-05T20:48:16;102313.72;;;16.36;55.09
59789;BME280;47353;51.614;5.530;2022-08-05T20:50:41;102312.06;;;16.30;55.11
59789;BME280;47353;51.614;5.530;2022-08-05T20:53:06;102310.94;;;16.26;55.11
59789;BME280;47353;51.614;5.530;2022-08-05T20:55:32;102318.75;;;16.19;55.95
59789;BME280;47353;51.614;5.530;2022-08-05T20:57:57;102321.56;;;16.14;56.57
59789;BME280;47353;51.614;5.530;2022-08-05T21:00:22;102326.59;;;16.12;57.06
59789;BME280;47353;51.614;5.530;2022-08-05T21:02:48;102321.84;;;16.08;56.76
59789;BME280;47353;51.614;5.530;2022-08-05T21:05:18;102326.03;;;16.00;56.86
59789;BME280;47353;51.614;5.530;2022-08-05T21:07:44;102324.06;;;15.96;57.08
59789;BME280;47353;51.614;5.530;2022-08-05T21:10:09;102326.56;;;15.92;57.10
59789;BME280;47353;51.614;5.530;2022-08-05T21:12:34;102327.38;;;15.88;57.71
59789;BME280;47353;51.614;5.530;2022-08-05T21:15:00;102335.72;;;15.78;58.26
59789;BME280;47353;51.614;5.530;2022-08-05T21:17:26;102330.69;;;15.75;58.77
59789;BME280;47353;51.614;5.530;2022-08-05T21:19:51;102340.78;;;15.76;58.49
59789;BME280;47353;51.614;5.530;2022-08-05T21:22:17;102335.47;;;15.74;58.43
59789;BME280;47353;51.614;5.530;2022-08-05T21:24:43;102334.03;;;15.62;58.90
59789;BME280;47353;51.614;5.530;2022-08-05T21:27:09;102335.69;;;15.63;58.85
59789;BME280;47353;51.614;5.530;2022-08-05T21:29:34;102340.13;;;15.54;59.20
59789;BME280;47353;51.614;5.530;2022-08-05T21:32:01;102342.06;;;15.53;59.52
59789;BME280;47353;51.614;5.530;2022-08-05T21:34:27;102331.09;;;15.37;59.74
59789;BME280;47353;51.614;5.530;2022-08-05T21:36:52;102350.13;;;15.40;59.79
59789;BME280;47353;51.614;5.530;2022-08-05T21:39:18;102349.84;;;15.41;60.20
59789;BME280;47353;51.614;5.530;2022-08-05T21:41:43;102349.28;;;15.39;60.15
59789;BME280;47353;51.614;5.530;2022-08-05T21:44:08;102351.72;;;15.31;60.50
59789;BME280;47353;51.614;5.530;2022-08-05T21:46:34;102347.50;;;15.23;60.83
59789;BME280;47353;51.614;5.530;2022-08-05T21:48:59;102351.16;;;15.24;60.82
59789;BME280;47353;51.614;5.530;2022-08-05T21:51:25;102359.44;;;15.14;61.08
59789;BME280;47353;51.614;5.530;2022-08-05T21:53:50;102362.53;;;15.17;61.01
59789;BME280;47353;51.614;5.530;2022-08-05T21:56:15;102370.28;;;15.10;61.99
59789;BME280;47353;51.614;5.530;2022-08-05T21:58:41;102377.53;;;15.06;61.92
59789;BME280;47353;51.614;5.530;2022-08-05T22:01:06;102371.88;;;14.96;62.17
59789;BME280;47353;51.614;5.530;2022-08-05T22:03:32;102377.44;;;14.96;62.59
59789;BME280;47353;51.614;5.530;2022-08-05T22:05:58;102377.13;;;14.87;62.48
59789;BME280;47353;51.614;5.530;2022-08-05T22:08:23;102372.94;;;14.85;63.33
59789;BME280;47353;51.614;5.530;2022-08-05T22:10:49;102381.84;;;14.82;63.51
59789;BME280;47353;51.614;5.530;2022-08-05T22:13:15;102387.16;;;14.83;63.20
59789;BME280;47353;51.614;5.530;2022-08-05T22:15:43;102384.91;;;14.80;62.86
59789;BME280;47353;51.614;5.530;2022-08-05T22:18:09;102384.28;;;14.73;63.59
59789;BME280;47353;51.614;5.530;2022-08-05T22:20:34;102387.91;;;14.74;63.44
59789;BME280;47353;51.614;5.530;2022-08-05T22:22:59;102383.69;;;14.71;63.49
59789;BME280;47353;51.614;5.530;2022-08-05T22:25:43;102392.09;;;14.76;60.69
59789;BME280;47353;51.614;5.530;2022-08-05T22:28:27;102393.69;;;14.67;63.14
59789;BME280;47353;51.614;5.530;2022-08-05T22:30:52;102391.44;;;14.64;63.45
59789;BME280;47353;51.614;5.530;2022-08-05T22:33:17;102391.72;;;14.63;63.51
59789;BME280;47353;51.614;5.530;2022-08-05T22:35:43;102396.16;;;14.59;63.70
59789;BME280;47353;51.614;5.530;2022-08-05T22:38:09;102394.41;;;14.53;64.04
59789;BME280;47353;51.614;5.530;2022-08-05T22:40:34;102397.97;;;14.43;64.42
59789;BME280;47353;51.614;5.530;2022-08-05T22:42:59;102400.75;;;14.43;64.66
59789;BME280;47353;51.614;5.530;2022-08-05T22:45:25;102402.09;;;14.41;64.77
59789;BME280;47353;51.614;5.530;2022-08-05T22:47:52;102409.84;;;14.34;65.10
59789;BME280;47353;51.614;5.530;2022-08-05T22:50:17;102411.47;;;14.30;65.41
59789;BME280;47353;51.614;5.530;2022-08-05T22:52:43;102412.25;;;14.25;65.63
59789;BME280;47353;51.614;5.530;2022-08-05T22:55:09;102408.88;;;14.23;65.51